createdAt,value
2023-02-04T00:00:26.884Z,13.00
2023-02-04T00:01:26.886Z,11.30
2023-02-04T00:02:26.920Z,9.60
2023-02-04T00:03:26.844Z,10.20
2023-02-04T00:04:26.822Z,8.30
2023-02-04T00:05:26.881Z,12.50
2023-02-04T00:06:26.836Z,13.60
2023-02-04T00:07:26.786Z,20.50
2023-02-04T00:08:26.785Z,10.90
2023-02-04T00:09:26.775Z,12.90
2023-02-04T00:10:26.765Z,10.10
2023-02-04T00:11:26.773Z,8.70
2023-02-04T00:12:26.739Z,9.60
2023-02-04T00:13:26.737Z,6.70
2023-02-04T00:14:26.719Z,14.00
2023-02-04T00:15:26.704Z,7.80
2023-02-04T00:16:26.753Z,7.80
2023-02-04T00:17:26.691Z,8.80
2023-02-04T00:18:26.677Z,7.60
2023-02-04T00:19:26.666Z,9.20
2023-02-04T00:20:26.661Z,9.30
2023-02-04T00:21:26.655Z,11.90
2023-02-04T00:22:26.655Z,11.50
2023-02-04T00:23:26.625Z,13.20
2023-02-04T00:24:26.614Z,13.40
2023-02-04T00:25:26.611Z,9.40
2023-02-04T00:26:26.615Z,8.80
2023-02-04T00:27:26.585Z,10.10
2023-02-04T00:28:26.582Z,9.40
2023-02-04T00:29:26.565Z,11.20
2023-02-04T00:30:26.552Z,16.20
2023-02-04T00:31:26.613Z,11.70
2023-02-04T00:32:26.611Z,11.00
2023-02-04T00:33:26.523Z,10.10
2023-02-04T00:34:26.516Z,13.30
2023-02-04T00:35:26.505Z,13.30
2023-02-04T00:36:26.538Z,14.10
2023-02-04T00:37:26.487Z,11.90
2023-02-04T00:38:26.468Z,7.80
2023-02-04T00:39:26.452Z,9.60
2023-02-04T00:40:26.463Z,15.20
2023-02-04T00:41:26.459Z,11.70
2023-02-04T00:42:26.438Z,10.40
2023-02-04T00:43:26.421Z,9.50
2023-02-04T00:44:26.422Z,13.90
2023-02-04T00:45:26.456Z,10.30
2023-02-04T00:46:26.392Z,12.60
2023-02-04T00:47:26.384Z,7.60
2023-02-04T00:48:26.883Z,8.10
2023-02-04T00:49:26.362Z,7.50
2023-02-04T00:50:26.350Z,10.60
2023-02-04T00:51:26.333Z,15.20
2023-02-04T00:52:26.337Z,8.00
2023-02-04T00:53:26.314Z,6.00
2023-02-04T00:54:26.305Z,10.30
2023-02-04T00:55:26.288Z,6.10
2023-02-04T00:56:26.282Z,9.20
2023-02-04T00:57:26.288Z,7.30
2023-02-04T00:58:26.261Z,12.10
2023-02-04T00:59:26.241Z,5.60
2023-02-04T01:00:26.240Z,5.90
2023-02-04T01:01:26.223Z,7.40
2023-02-04T01:02:26.282Z,6.00
2023-02-04T01:03:26.219Z,10.90
2023-02-04T01:04:26.196Z,7.30
2023-02-04T01:05:26.201Z,6.20
2023-02-04T01:06:26.183Z,9.60
2023-02-04T01:07:26.256Z,9.20
2023-02-04T01:08:26.164Z,10.50
2023-02-04T01:09:26.160Z,8.60
2023-02-04T01:10:26.159Z,8.40
2023-02-04T01:11:26.128Z,9.90
2023-02-04T01:12:26.177Z,6.80
2023-02-04T01:13:26.101Z,7.40
2023-02-04T01:14:26.103Z,6.50
2023-02-04T01:15:26.083Z,8.70
2023-02-04T01:16:26.142Z,8.80
2023-02-04T01:17:26.079Z,8.70
2023-02-04T01:18:26.056Z,10.60
2023-02-04T01:19:26.046Z,11.30
2023-02-04T01:20:26.036Z,13.40
2023-02-04T01:21:26.033Z,9.60
2023-02-04T01:22:26.059Z,10.50
2023-02-04T01:23:26.009Z,14.90
2023-02-04T01:24:26.009Z,9.60
2023-02-04T01:25:25.982Z,11.60
2023-02-04T01:26:25.975Z,7.60
2023-02-04T01:27:25.974Z,10.90
2023-02-04T01:28:25.961Z,6.10
2023-02-04T01:29:25.935Z,7.60
2023-02-04T01:30:25.931Z,8.90
2023-02-04T01:31:25.986Z,8.90
2023-02-04T01:32:25.940Z,7.50
2023-02-04T01:34:37.635Z,5.00
2023-02-04T01:35:38.618Z,6.80
2023-02-04T01:36:38.637Z,11.60
2023-02-04T01:37:38.622Z,9.40
2023-02-04T01:38:38.596Z,6.30
2023-02-04T01:39:38.589Z,8.60
2023-02-04T01:40:38.575Z,8.00
2023-02-04T01:41:38.574Z,9.00
2023-02-04T01:42:38.570Z,12.40
2023-02-04T01:43:38.545Z,9.30
2023-02-04T01:44:38.536Z,11.50
2023-02-04T01:45:38.588Z,14.50
2023-02-04T01:46:38.561Z,11.10
2023-02-04T01:47:38.501Z,10.20
2023-02-04T01:48:38.488Z,8.50
2023-02-04T01:49:38.478Z,6.70
2023-02-04T01:50:38.473Z,8.80
2023-02-04T01:51:38.494Z,9.60
2023-02-04T01:52:38.457Z,8.50
2023-02-04T01:53:38.429Z,11.50
2023-02-04T01:54:38.441Z,11.30
2023-02-04T01:55:38.414Z,7.60
2023-02-04T01:56:38.428Z,8.50
2023-02-04T01:57:38.403Z,7.10
2023-02-04T01:58:38.402Z,11.20
2023-02-04T01:59:38.379Z,10.10
2023-02-04T02:00:38.374Z,8.10
2023-02-04T02:01:38.372Z,11.70
2023-02-04T02:02:38.415Z,8.90
2023-02-04T02:03:38.331Z,8.80
2023-02-04T02:04:38.332Z,17.20
2023-02-04T02:05:38.312Z,9.10
2023-02-04T02:06:38.346Z,5.30
2023-02-04T02:07:38.305Z,11.00
2023-02-04T02:08:38.299Z,8.00
2023-02-04T02:09:38.283Z,10.20
2023-02-04T02:10:38.278Z,9.70
2023-02-04T02:11:38.251Z,8.70
2023-02-04T02:12:38.261Z,12.30
2023-02-04T02:13:38.247Z,11.10
2023-02-04T02:14:38.243Z,10.90
2023-02-04T02:15:38.212Z,9.30
2023-02-04T02:16:38.254Z,10.70
2023-02-04T02:17:38.199Z,9.10
2023-02-04T02:18:38.193Z,9.80
2023-02-04T02:19:38.179Z,9.60
2023-02-04T02:20:38.166Z,12.70
2023-02-04T02:21:38.165Z,11.60
2023-02-04T02:22:38.144Z,10.50
2023-02-04T02:23:38.139Z,10.70
2023-02-04T02:24:38.137Z,9.80
2023-02-04T02:25:38.134Z,6.40
2023-02-04T02:26:38.119Z,10.40
2023-02-04T02:27:38.146Z,4.70
2023-02-04T02:28:38.087Z,10.50
2023-02-04T02:29:38.075Z,6.60
2023-02-04T02:30:38.119Z,7.80
2023-02-04T02:31:38.171Z,9.10
2023-02-04T02:32:38.039Z,7.50
2023-02-04T02:33:38.056Z,12.10
2023-02-04T02:34:38.024Z,10.30
2023-02-04T02:35:38.055Z,6.90
2023-02-04T02:36:38.006Z,16.90
2023-02-04T02:37:37.998Z,9.70
2023-02-04T02:38:37.977Z,8.10
2023-02-04T02:39:37.963Z,14.40
2023-02-04T02:40:37.959Z,12.80
2023-02-04T02:41:37.944Z,7.40
2023-02-04T02:42:37.945Z,6.70
2023-02-04T02:43:37.936Z,11.50
2023-02-04T02:44:37.925Z,7.10
2023-02-04T02:45:37.900Z,8.00
2023-02-04T02:46:37.896Z,9.80
2023-02-04T02:47:37.925Z,10.00
2023-02-04T02:48:37.893Z,13.80
2023-02-04T02:49:37.857Z,12.40
2023-02-04T02:50:37.864Z,9.10
2023-02-04T02:51:37.864Z,9.50
2023-02-04T02:52:37.849Z,9.00
2023-02-04T02:53:37.817Z,10.30
2023-02-04T02:54:37.821Z,13.70
2023-02-04T02:55:37.794Z,9.10
2023-02-04T02:56:37.790Z,10.20
2023-02-04T02:57:37.796Z,11.00
2023-02-04T02:58:37.771Z,12.40
2023-02-04T02:59:37.764Z,7.10
2023-02-04T03:00:37.750Z,9.00
2023-02-04T03:01:37.762Z,10.40
2023-02-04T03:02:37.742Z,10.20
2023-02-04T03:03:37.731Z,9.20
2023-02-04T03:04:37.707Z,5.10
2023-02-04T03:05:37.697Z,11.60
2023-02-04T03:06:37.679Z,6.40
2023-02-04T03:07:37.737Z,9.20
2023-02-04T03:08:37.678Z,6.90
2023-02-04T03:09:37.672Z,4.90
2023-02-04T03:10:37.647Z,6.20
2023-02-04T03:11:37.640Z,8.90
2023-02-04T03:12:37.644Z,9.20
2023-02-04T03:13:37.619Z,12.10
2023-02-04T03:14:37.608Z,11.60
2023-02-04T03:15:37.638Z,9.70
2023-02-04T03:16:37.595Z,6.80
2023-02-04T03:17:37.764Z,11.00
2023-02-04T03:18:37.571Z,9.70
2023-02-04T03:19:37.570Z,8.40
2023-02-04T03:20:37.547Z,10.40
2023-02-04T03:21:37.533Z,7.30
2023-02-04T03:22:37.612Z,10.60
2023-02-04T03:23:37.516Z,9.90
2023-02-04T03:24:37.499Z,10.90
2023-02-04T03:25:37.513Z,10.10
2023-02-04T03:26:37.496Z,8.70
2023-02-04T03:27:37.515Z,6.00
2023-02-04T03:28:37.468Z,9.90
2023-02-04T03:29:37.457Z,4.60
2023-02-04T03:30:37.447Z,7.00
2023-02-04T03:31:37.484Z,8.60
2023-02-04T03:32:37.428Z,8.50
2023-02-04T03:33:37.439Z,8.60
2023-02-04T03:34:37.409Z,9.30
2023-02-04T03:35:37.399Z,10.30
2023-02-04T03:36:37.392Z,12.70
2023-02-04T03:37:37.411Z,8.90
2023-02-04T03:38:37.377Z,7.00
2023-02-04T03:39:37.355Z,5.30
2023-02-04T03:40:37.356Z,13.30
2023-02-04T03:41:37.340Z,8.40
2023-02-04T03:42:37.339Z,6.30
2023-02-04T03:43:37.354Z,7.80
2023-02-04T03:44:37.310Z,5.70
2023-02-04T03:45:45.031Z,7.20
2023-02-04T03:46:37.314Z,11.10
2023-02-04T03:47:37.310Z,9.00
2023-02-04T03:48:37.267Z,10.80
2023-02-04T03:49:37.264Z,8.60
2023-02-04T03:50:37.236Z,6.20
2023-02-04T03:51:37.258Z,10.10
2023-02-04T03:52:37.335Z,11.80
2023-02-04T03:53:37.221Z,9.50
2023-02-04T03:54:37.209Z,9.60
2023-02-04T03:55:37.206Z,6.80
2023-02-04T03:56:37.189Z,8.60
2023-02-04T03:57:37.222Z,6.80
2023-02-04T03:58:37.172Z,9.20
2023-02-04T03:59:37.165Z,9.40
2023-02-04T04:00:37.148Z,9.60
2023-02-04T04:01:37.171Z,6.60
2023-02-04T04:02:37.138Z,11.50
2023-02-04T04:03:37.117Z,10.80
2023-02-04T04:04:37.124Z,8.90
2023-02-04T04:05:37.101Z,8.40
2023-02-04T04:06:37.089Z,6.80
2023-02-04T04:07:37.144Z,12.40
2023-02-04T04:08:37.088Z,8.10
2023-02-04T04:09:37.055Z,8.70
2023-02-04T04:10:37.036Z,7.60
2023-02-04T04:11:37.044Z,7.70
2023-02-04T04:12:37.047Z,5.80
2023-02-04T04:13:37.026Z,9.60
2023-02-04T04:14:36.993Z,8.00
2023-02-04T04:15:37.023Z,12.10
2023-02-04T04:16:36.984Z,8.10
2023-02-04T04:17:36.969Z,5.90
2023-02-04T04:18:36.964Z,6.50
2023-02-04T04:19:36.969Z,14.50
2023-02-04T04:20:37.301Z,7.50
2023-02-04T04:21:36.930Z,4.80
2023-02-04T04:22:36.930Z,7.50
2023-02-04T04:23:36.920Z,6.90
2023-02-04T04:24:36.902Z,8.60
2023-02-04T04:25:36.903Z,8.80
2023-02-04T04:26:36.884Z,13.10
2023-02-04T04:27:36.888Z,10.40
2023-02-04T04:28:36.854Z,6.80
2023-02-04T04:29:36.866Z,12.60
2023-02-04T04:30:36.853Z,9.30
2023-02-04T04:31:37.006Z,6.50
2023-02-04T04:32:36.824Z,5.20
2023-02-04T04:33:36.809Z,8.50
2023-02-04T04:34:36.783Z,5.90
2023-02-04T04:35:36.796Z,8.90
2023-02-04T04:36:36.769Z,5.10
2023-02-04T04:37:36.771Z,6.40
2023-02-04T04:38:36.761Z,7.80
2023-02-04T04:39:36.743Z,9.60
2023-02-04T04:40:36.736Z,8.10
2023-02-04T04:41:36.731Z,9.30
2023-02-04T04:42:36.725Z,7.80
2023-02-04T04:43:36.698Z,8.10
2023-02-04T04:44:36.689Z,6.30
2023-02-04T04:45:36.682Z,7.30
2023-02-04T04:46:36.693Z,3.50
2023-02-04T04:47:36.728Z,5.30
2023-02-04T04:48:36.652Z,2.60
2023-02-04T04:49:36.633Z,5.60
2023-02-04T04:50:36.641Z,8.60
2023-02-04T04:51:36.611Z,6.20
2023-02-04T04:52:36.658Z,4.20
2023-02-04T04:53:36.594Z,3.80
2023-02-04T04:54:36.574Z,8.80
2023-02-04T04:55:36.575Z,6.60
2023-02-04T04:56:36.561Z,5.60
2023-02-04T04:57:36.568Z,5.10
2023-02-04T04:58:36.544Z,10.60
2023-02-04T04:59:36.540Z,9.10
2023-02-04T05:00:36.603Z,3.50
2023-02-04T05:01:36.517Z,6.30
2023-02-04T05:02:36.948Z,7.20
2023-02-04T05:03:36.492Z,5.40
2023-02-04T05:04:36.499Z,6.40
2023-02-04T05:05:36.477Z,6.40
2023-02-04T05:06:36.461Z,9.60
2023-02-04T05:07:36.509Z,6.80
2023-02-04T05:08:36.463Z,3.90
2023-02-04T05:09:36.431Z,5.50
2023-02-04T05:10:36.430Z,5.40
2023-02-04T05:11:36.431Z,8.40
2023-02-04T05:12:36.424Z,9.20
2023-02-04T05:13:36.411Z,5.70
2023-02-04T05:14:36.381Z,7.30
2023-02-04T05:15:36.380Z,5.50
2023-02-04T05:16:36.402Z,8.70
2023-02-04T05:17:36.361Z,5.90
2023-02-04T05:18:36.358Z,9.60
2023-02-04T05:19:36.338Z,9.20
2023-02-04T05:20:36.320Z,4.80
2023-02-04T05:21:36.316Z,3.80
2023-02-04T05:22:36.298Z,7.00
2023-02-04T05:23:36.320Z,6.70
2023-02-04T05:24:36.279Z,6.40
2023-02-04T05:25:36.302Z,4.90
2023-02-04T05:26:36.257Z,5.60
2023-02-04T05:27:36.268Z,9.50
2023-02-04T05:28:36.241Z,4.60
2023-02-04T05:29:36.248Z,5.10
2023-02-04T05:30:36.244Z,3.80
2023-02-04T05:31:36.277Z,4.90
2023-02-04T05:32:36.207Z,3.80
2023-02-04T05:33:36.298Z,6.90
2023-02-04T05:34:36.179Z,5.00
2023-02-04T05:35:36.188Z,4.50
2023-02-04T05:36:36.165Z,2.20
2023-02-04T05:37:36.149Z,2.00
2023-02-04T05:38:36.167Z,2.30
2023-02-04T05:39:36.135Z,1.20
2023-02-04T05:40:36.134Z,1.50
2023-02-04T05:41:36.119Z,1.30
2023-02-04T05:42:36.103Z,1.20
2023-02-04T05:43:36.102Z,1.90
2023-02-04T05:44:36.073Z,1.30
2023-02-04T05:45:36.171Z,1.20
2023-02-04T05:46:36.054Z,1.00
2023-02-04T05:47:36.094Z,1.80
2023-02-04T05:48:36.045Z,1.50
2023-02-04T05:49:36.035Z,1.10
2023-02-04T05:50:36.011Z,1.20
2023-02-04T05:51:36.014Z,1.70
2023-02-04T05:52:35.997Z,1.30
2023-02-04T05:53:36.008Z,1.30
2023-02-04T05:54:35.983Z,1.20
2023-02-04T05:55:35.968Z,1.60
2023-02-04T05:56:35.966Z,2.20
2023-02-04T05:57:35.952Z,1.10
2023-02-04T05:58:35.992Z,1.60
2023-02-04T05:59:35.944Z,1.20
2023-02-04T06:00:35.915Z,1.30
2023-02-04T06:01:35.848Z,1.50
2023-02-04T06:02:35.916Z,1.30
2023-02-04T06:03:36.031Z,1.50
2023-02-04T06:04:36.010Z,1.40
2023-02-04T06:05:35.883Z,1.30
2023-02-04T06:06:35.849Z,1.20
2023-02-04T06:07:35.862Z,1.40
2023-02-04T06:08:35.855Z,1.70
2023-02-04T06:09:35.816Z,1.10
2023-02-04T06:10:35.808Z,1.70
2023-02-04T06:11:35.800Z,1.60
2023-02-04T06:12:35.814Z,1.90
2023-02-04T06:13:35.802Z,1.50
2023-02-04T06:14:35.765Z,1.30
2023-02-04T06:15:35.767Z,1.50
2023-02-04T06:16:35.836Z,1.60
2023-02-04T06:17:35.750Z,1.30
2023-02-04T06:18:35.792Z,1.30
2023-02-04T06:19:35.725Z,1.50
2023-02-04T06:20:35.661Z,1.60
2023-02-04T06:21:35.710Z,1.30
2023-02-04T06:22:35.720Z,1.60
2023-02-04T06:23:35.725Z,2.50
2023-02-04T06:24:35.618Z,1.50
2023-02-04T06:25:35.618Z,1.50
2023-02-04T06:26:35.667Z,2.00
2023-02-04T06:27:35.652Z,1.40
2023-02-04T06:28:35.685Z,1.50
2023-02-04T06:29:35.625Z,1.30
2023-02-04T06:30:36.074Z,1.50
2023-02-04T06:31:35.607Z,3.10
2023-02-04T06:32:35.597Z,1.40
2023-02-04T06:33:35.614Z,1.70
2023-02-04T06:34:35.577Z,1.80
2023-02-04T06:35:35.509Z,2.50
2023-02-04T06:36:35.511Z,1.40
2023-02-04T06:37:35.484Z,1.60
2023-02-04T06:38:35.534Z,2.20
2023-02-04T06:39:35.463Z,1.60
2023-02-04T06:40:35.443Z,1.90
2023-02-04T06:41:35.434Z,1.60
2023-02-04T06:42:35.452Z,1.50
2023-02-04T06:43:35.442Z,1.70
2023-02-04T06:44:35.417Z,2.70
2023-02-04T06:45:35.419Z,1.80
2023-02-04T06:46:35.391Z,2.30
2023-02-04T06:47:35.395Z,2.50
2023-02-04T06:48:35.408Z,1.50
2023-02-04T06:49:35.359Z,2.10
2023-02-04T06:50:35.355Z,2.10
2023-02-04T06:51:35.343Z,1.40
2023-02-04T06:52:35.337Z,1.70
2023-02-04T06:53:35.383Z,2.10
2023-02-04T06:54:35.320Z,1.50
2023-02-04T06:55:35.329Z,2.90
2023-02-04T06:56:35.284Z,1.50
2023-02-04T06:57:35.301Z,1.80
2023-02-04T06:58:35.277Z,1.80
2023-02-04T06:59:35.266Z,2.80
2023-02-04T07:00:35.316Z,1.90
2023-02-04T07:01:35.286Z,2.00
2023-02-04T07:02:35.273Z,1.60
2023-02-04T07:03:35.239Z,1.60
2023-02-04T07:04:35.212Z,2.30
2023-02-04T07:05:35.205Z,4.70
2023-02-04T07:06:35.188Z,2.70
2023-02-04T07:07:35.198Z,1.60
2023-02-04T07:08:35.222Z,2.30
2023-02-04T07:09:35.175Z,1.90
2023-02-04T07:10:35.465Z,2.60
2023-02-04T07:11:35.158Z,2.20
2023-02-04T07:12:35.131Z,2.10
2023-02-04T07:13:35.130Z,1.80
2023-02-04T07:14:35.128Z,2.40
2023-02-04T07:15:35.150Z,1.70
2023-02-04T07:16:35.091Z,1.70
2023-02-04T07:17:35.072Z,2.00
2023-02-04T07:18:35.062Z,2.10
2023-02-04T07:19:35.055Z,2.00
2023-02-04T07:20:35.410Z,1.60
2023-02-04T07:21:35.062Z,2.30
2023-02-04T07:22:35.033Z,2.20
2023-02-04T07:23:35.022Z,2.40
2023-02-04T07:24:35.013Z,2.20
2023-02-04T07:25:34.984Z,2.30
2023-02-04T07:26:35.002Z,3.40
2023-02-04T07:27:34.980Z,2.20
2023-02-04T07:28:34.997Z,2.20
2023-02-04T07:29:34.955Z,2.70
2023-02-04T07:30:35.334Z,3.50
2023-02-04T07:31:35.069Z,2.80
2023-02-04T07:32:34.918Z,2.20
2023-02-04T07:33:34.920Z,2.90
2023-02-04T07:34:34.902Z,3.20
2023-02-04T07:35:34.892Z,3.10
2023-02-04T07:36:34.954Z,2.30
2023-02-04T07:37:34.887Z,4.00
2023-02-04T07:38:34.865Z,2.60
2023-02-04T07:39:34.837Z,3.60
2023-02-04T07:40:35.040Z,3.50
2023-02-04T07:41:34.834Z,2.80
2023-02-04T07:42:34.818Z,3.00
2023-02-04T07:43:34.816Z,3.80
2023-02-04T07:44:34.798Z,3.50
2023-02-04T07:45:34.781Z,3.80
2023-02-04T07:46:34.894Z,3.10
2023-02-04T07:47:34.775Z,3.40
2023-02-04T07:48:34.778Z,3.50
2023-02-04T07:49:34.746Z,5.60
2023-02-04T07:50:35.221Z,2.90
2023-02-04T07:51:34.712Z,2.80
2023-02-04T07:52:34.703Z,2.80
2023-02-04T07:53:34.718Z,3.30
2023-02-04T07:54:34.701Z,4.10
2023-02-04T07:55:34.672Z,2.50
2023-02-04T07:56:34.668Z,4.20
2023-02-04T07:57:34.649Z,2.20
2023-02-04T07:58:34.687Z,2.90
2023-02-04T07:59:34.631Z,3.50
2023-02-04T08:00:34.787Z,1.70
2023-02-04T08:01:34.687Z,3.00
2023-02-04T08:02:34.631Z,2.10
2023-02-04T08:03:35.403Z,2.80
2023-02-04T08:04:34.587Z,2.60
2023-02-04T08:05:34.594Z,3.00
2023-02-04T08:06:34.603Z,2.60
2023-02-04T08:07:34.568Z,2.80
2023-02-04T08:08:34.616Z,3.30
2023-02-04T08:09:34.528Z,3.00
2023-02-04T08:10:34.643Z,3.90
2023-02-04T08:11:34.505Z,4.10
2023-02-04T08:12:34.495Z,2.60
2023-02-04T08:13:34.495Z,3.40
2023-02-04T08:14:34.483Z,3.40
2023-02-04T08:15:34.466Z,2.60
2023-02-04T08:16:34.476Z,2.70
2023-02-04T08:17:34.455Z,4.10
2023-02-04T08:18:34.440Z,2.70
2023-02-04T08:19:34.467Z,3.20
2023-02-04T08:20:34.678Z,3.00
2023-02-04T08:21:34.406Z,3.00
2023-02-04T08:22:34.395Z,3.20
2023-02-04T08:23:34.379Z,2.70
2023-02-04T08:24:34.389Z,3.30
2023-02-04T08:25:34.357Z,4.20
2023-02-04T08:26:34.369Z,2.90
2023-02-04T08:27:34.335Z,3.70
2023-02-04T08:28:34.329Z,2.60
2023-02-04T08:29:34.320Z,4.00
2023-02-04T08:30:34.736Z,2.50
2023-02-04T08:31:34.439Z,2.70
2023-02-04T08:32:34.310Z,2.80
2023-02-04T08:33:34.278Z,3.80
2023-02-04T08:34:34.301Z,4.20
2023-02-04T08:35:34.266Z,2.10
2023-02-04T08:36:34.247Z,2.30
2023-02-04T08:37:34.254Z,2.30
2023-02-04T08:38:34.246Z,2.30
2023-02-04T08:39:34.275Z,2.70
2023-02-04T08:40:34.405Z,2.60
2023-02-04T08:41:34.195Z,2.60
2023-02-04T08:42:34.189Z,2.60
2023-02-04T08:43:34.197Z,3.40
2023-02-04T08:44:34.207Z,2.00
2023-02-04T08:45:34.169Z,3.20
2023-02-04T08:46:34.235Z,3.00
2023-02-04T08:47:34.157Z,2.90
2023-02-04T08:48:34.140Z,2.40
2023-02-04T08:49:34.177Z,2.20
2023-02-04T08:50:34.466Z,3.00
2023-02-04T08:51:34.116Z,2.80
2023-02-04T08:52:34.119Z,3.70
2023-02-04T08:53:34.106Z,3.50
2023-02-04T08:54:34.115Z,3.00
2023-02-04T08:55:34.073Z,3.10
2023-02-04T08:56:34.081Z,3.00
2023-02-04T08:57:34.078Z,3.40
2023-02-04T08:58:34.052Z,3.40
2023-02-04T08:59:34.065Z,2.10
2023-02-04T09:00:34.457Z,2.80
2023-02-04T09:01:34.044Z,3.60
2023-02-04T09:02:34.023Z,2.80
2023-02-04T09:03:34.023Z,2.80
2023-02-04T09:04:34.033Z,2.10
2023-02-04T09:05:33.986Z,2.40
2023-02-04T09:06:33.973Z,2.60
2023-02-04T09:07:33.984Z,2.90
2023-02-04T09:08:33.963Z,3.60
2023-02-04T09:09:33.967Z,2.30
2023-02-04T09:10:34.259Z,2.60
2023-02-04T09:11:33.932Z,2.80
2023-02-04T09:12:33.929Z,2.70
2023-02-04T09:13:33.918Z,2.30
2023-02-04T09:14:33.933Z,2.30
2023-02-04T09:15:33.895Z,3.00
2023-02-04T09:16:33.925Z,2.50
2023-02-04T09:17:33.867Z,2.80
2023-02-04T09:18:33.863Z,4.20
2023-02-04T09:19:33.897Z,2.60
2023-02-04T09:20:34.177Z,3.90
2023-02-04T09:21:33.830Z,2.70
2023-02-04T09:22:33.818Z,2.50
2023-02-04T09:23:33.806Z,2.90
2023-02-04T09:24:33.827Z,3.20
2023-02-04T09:25:33.795Z,2.60
2023-02-04T09:26:33.794Z,3.40
2023-02-04T09:27:33.789Z,3.20
2023-02-04T09:28:33.757Z,2.70
2023-02-04T09:29:33.796Z,2.20
2023-02-04T09:30:34.200Z,3.00
2023-02-04T09:31:33.879Z,3.80
2023-02-04T09:32:33.722Z,2.70
2023-02-04T09:33:33.712Z,2.40
2023-02-04T09:34:33.745Z,3.10
2023-02-04T09:35:33.687Z,2.30
2023-02-04T09:36:33.673Z,2.70
2023-02-04T09:37:33.681Z,3.10
2023-02-04T09:38:33.655Z,3.10
2023-02-04T09:39:33.659Z,3.50
2023-02-04T09:40:33.914Z,3.60
2023-02-04T09:41:33.621Z,3.10
2023-02-04T09:42:33.616Z,3.90
2023-02-04T09:43:33.612Z,3.50
2023-02-04T09:44:33.622Z,3.00
2023-02-04T09:45:33.674Z,3.00
2023-02-04T09:46:33.603Z,2.80
2023-02-04T09:47:33.556Z,2.40
2023-02-04T09:48:33.552Z,3.00
2023-02-04T09:49:33.583Z,2.20
2023-02-04T09:50:34.183Z,1.80
2023-02-04T09:51:33.519Z,2.10
2023-02-04T09:52:33.517Z,1.80
2023-02-04T09:53:33.487Z,2.00
2023-02-04T09:54:33.540Z,1.70
2023-02-04T09:55:33.462Z,2.70
2023-02-04T09:56:33.456Z,1.90
2023-02-04T09:57:33.484Z,1.50
2023-02-04T09:58:33.444Z,2.00
2023-02-04T09:59:33.432Z,1.60
2023-02-04T10:00:33.687Z,2.20
2023-02-04T10:01:33.391Z,1.60
2023-02-04T10:02:33.413Z,1.70
2023-02-04T10:03:33.413Z,2.00
2023-02-04T10:04:33.372Z,1.60
2023-02-04T10:05:33.355Z,1.50
2023-02-04T10:06:33.346Z,1.80
2023-02-04T10:07:33.369Z,1.90
2023-02-04T10:08:33.360Z,2.20
2023-02-04T10:09:33.313Z,1.70
2023-02-04T10:10:33.598Z,2.40
2023-02-04T10:11:33.280Z,1.70
2023-02-04T10:12:33.274Z,1.50
2023-02-04T10:13:33.265Z,2.20
2023-02-04T10:14:33.270Z,2.70
2023-02-04T10:15:33.228Z,2.00
2023-02-04T10:16:33.240Z,3.00
2023-02-04T10:17:33.218Z,1.30
2023-02-04T10:18:33.211Z,1.50
2023-02-04T10:19:33.264Z,1.30
2023-02-04T10:20:33.443Z,1.50
2023-02-04T10:21:33.166Z,1.50
2023-02-04T10:22:33.170Z,2.10
2023-02-04T10:23:33.145Z,3.00
2023-02-04T10:24:33.162Z,4.00
2023-02-04T10:25:33.128Z,6.80
2023-02-04T10:26:33.124Z,16.30
2023-02-04T10:27:33.113Z,7.10
2023-02-04T10:28:33.095Z,4.00
2023-02-04T10:29:33.140Z,3.20
2023-02-04T10:30:33.381Z,1.30
2023-02-04T10:31:33.217Z,2.50
2023-02-04T10:32:33.067Z,2.60
2023-02-04T10:33:33.055Z,3.50
2023-02-04T10:34:33.063Z,1.90
2023-02-04T10:35:33.032Z,5.90
2023-02-04T10:36:33.032Z,1.80
2023-02-04T10:37:33.062Z,1.00
2023-02-04T10:38:33.020Z,2.00
2023-02-04T10:39:33.001Z,1.60
2023-02-04T10:40:33.252Z,3.20
2023-02-04T10:41:32.973Z,2.10
2023-02-04T10:42:32.952Z,1.50
2023-02-04T10:43:32.953Z,1.90
2023-02-04T10:44:32.966Z,1.40
2023-02-04T10:45:32.930Z,2.20
2023-02-04T10:46:32.916Z,1.40
2023-02-04T10:47:32.900Z,1.50
2023-02-04T10:48:32.900Z,1.70
2023-02-04T10:49:32.910Z,2.40
2023-02-04T10:50:33.195Z,3.40
2023-02-04T10:51:32.854Z,1.40
2023-02-04T10:52:32.859Z,2.30
2023-02-04T10:53:32.838Z,3.60
2023-02-04T10:54:32.866Z,1.80
2023-02-04T10:55:32.822Z,3.20
2023-02-04T10:56:32.815Z,1.90
2023-02-04T10:57:32.789Z,3.70
2023-02-04T10:58:32.804Z,2.20
2023-02-04T10:59:32.810Z,3.90
2023-02-04T11:00:33.054Z,4.30
2023-02-04T11:01:32.788Z,5.70
2023-02-04T11:02:32.763Z,3.40
2023-02-04T11:03:32.787Z,2.10
2023-02-04T11:04:32.788Z,2.70
2023-02-04T11:05:32.748Z,4.30
2023-02-04T11:06:32.729Z,5.90
2023-02-04T11:07:32.690Z,2.60
2023-02-04T11:08:32.689Z,2.40
2023-02-04T11:09:32.695Z,10.40
2023-02-04T11:10:33.013Z,10.70
2023-02-04T11:11:32.658Z,9.40
2023-02-04T11:12:32.661Z,2.90
2023-02-04T11:13:32.661Z,2.20
2023-02-04T11:14:32.622Z,3.10
2023-02-04T11:15:32.646Z,3.70
2023-02-04T11:16:32.603Z,2.10
2023-02-04T11:17:32.596Z,5.40
2023-02-04T11:18:32.595Z,5.40
2023-02-04T11:19:32.583Z,4.30
2023-02-04T11:20:32.932Z,4.90
2023-02-04T11:21:32.552Z,4.10
2023-02-04T11:22:32.533Z,4.60
2023-02-04T11:23:32.612Z,7.50
2023-02-04T11:24:32.536Z,5.50
2023-02-04T11:25:32.807Z,6.60
2023-02-04T11:26:32.513Z,7.30
2023-02-04T11:27:32.489Z,2.10
2023-02-04T11:28:32.477Z,1.90
2023-02-04T11:29:32.461Z,2.20
2023-02-04T11:30:32.637Z,2.00
2023-02-04T11:31:32.635Z,1.40
2023-02-04T11:32:32.423Z,2.90
2023-02-04T11:33:32.427Z,2.10
2023-02-04T11:34:32.415Z,1.70
2023-02-04T11:35:32.692Z,2.40
2023-02-04T11:36:32.387Z,2.50
2023-02-04T11:37:32.373Z,2.40
2023-02-04T11:38:32.380Z,1.50
2023-02-04T11:39:32.365Z,1.30
2023-02-04T11:40:32.343Z,1.70
2023-02-04T11:41:32.337Z,1.70
2023-02-04T11:42:32.314Z,1.50
2023-02-04T11:43:32.321Z,1.80
2023-02-04T11:44:32.308Z,1.20
2023-02-04T11:45:32.720Z,2.40
2023-02-04T11:46:32.338Z,1.10
2023-02-04T11:47:32.279Z,1.70
2023-02-04T11:48:32.261Z,2.20
2023-02-04T11:49:32.246Z,1.30
2023-02-04T11:50:32.865Z,1.80
2023-02-04T11:51:32.242Z,1.70
2023-02-04T11:52:32.218Z,2.30
2023-02-04T11:53:32.211Z,1.60
2023-02-04T11:54:32.199Z,1.50
2023-02-04T11:55:32.544Z,1.20
2023-02-04T11:56:32.176Z,1.20
2023-02-04T11:57:32.168Z,1.00
2023-02-04T11:58:32.166Z,1.20
2023-02-04T11:59:32.146Z,1.50
2023-02-04T12:00:32.191Z,2.00
2023-02-04T12:01:32.133Z,2.90
2023-02-04T12:02:32.147Z,5.40
2023-02-04T12:03:32.180Z,2.10
2023-02-04T12:04:32.085Z,2.90
2023-02-04T12:05:32.439Z,1.80
2023-02-04T12:06:32.075Z,2.70
2023-02-04T12:07:32.077Z,10.30
2023-02-04T12:08:32.049Z,5.10
2023-02-04T12:09:32.039Z,3.20
2023-02-04T12:10:32.107Z,1.70
2023-02-04T12:11:32.050Z,2.20
2023-02-04T12:12:32.016Z,3.00
2023-02-04T12:13:32.005Z,2.90
2023-02-04T12:14:31.989Z,3.10
2023-02-04T12:15:32.328Z,2.40
2023-02-04T12:16:31.970Z,2.60
2023-02-04T12:17:31.982Z,1.50
2023-02-04T12:18:31.943Z,1.50
2023-02-04T12:19:31.944Z,2.10
2023-02-04T12:20:31.962Z,2.50
2023-02-04T12:21:31.914Z,1.30
2023-02-04T12:22:31.901Z,1.40
2023-02-04T12:23:31.890Z,1.30
2023-02-04T12:24:31.876Z,2.60
2023-02-04T12:25:32.248Z,1.70
2023-02-04T12:26:31.856Z,4.10
2023-02-04T12:27:31.865Z,2.10
2023-02-04T12:28:31.835Z,1.70
2023-02-04T12:29:31.839Z,2.60
2023-02-04T12:30:31.878Z,2.30
2023-02-04T12:31:31.952Z,1.70
2023-02-04T12:32:31.800Z,2.50
2023-02-04T12:33:31.785Z,1.50
2023-02-04T12:34:31.784Z,1.80
2023-02-04T12:35:32.084Z,2.60
2023-02-04T12:36:31.760Z,1.90
2023-02-04T12:37:31.774Z,1.90
2023-02-04T12:38:31.768Z,2.40
2023-02-04T12:39:31.728Z,2.60
2023-02-04T12:40:31.747Z,1.90
2023-02-04T12:41:31.728Z,1.80
2023-02-04T12:42:31.683Z,2.10
2023-02-04T12:43:31.690Z,1.60
2023-02-04T12:44:31.678Z,3.00
2023-02-04T12:45:32.036Z,1.90
2023-02-04T12:46:31.680Z,1.90
2023-02-04T12:47:31.642Z,1.40
2023-02-04T12:48:31.695Z,2.10
2023-02-04T12:49:31.624Z,1.80
2023-02-04T12:50:31.709Z,2.30
2023-02-04T12:51:31.624Z,2.10
2023-02-04T12:52:31.582Z,2.20
2023-02-04T12:53:31.588Z,2.00
2023-02-04T12:54:31.567Z,1.60
2023-02-04T12:55:31.977Z,1.80
2023-02-04T12:56:31.556Z,3.10
2023-02-04T12:57:31.543Z,1.50
2023-02-04T12:58:31.519Z,2.30
2023-02-04T12:59:31.535Z,1.70
2023-02-04T13:00:31.626Z,3.00
2023-02-04T13:01:31.515Z,2.90
2023-02-04T13:02:31.480Z,2.10
2023-02-04T13:03:31.489Z,1.50
2023-02-04T13:04:31.464Z,2.50
2023-02-04T13:05:31.870Z,3.20
2023-02-04T13:06:31.468Z,1.70
2023-02-04T13:07:31.446Z,2.10
2023-02-04T13:08:31.436Z,1.60
2023-02-04T13:09:31.421Z,1.30
2023-02-04T13:10:31.448Z,2.00
2023-02-04T13:11:31.414Z,2.50
2023-02-04T13:12:31.381Z,3.20
2023-02-04T13:13:31.376Z,2.40
2023-02-04T13:14:31.367Z,2.10
2023-02-04T13:15:31.697Z,1.60